sensor_id;sensor_type;location;lat;lon;timestamp;pressure;altitude;pressure_sealevel;temperature;humidity
39773;BME280;25451;51.960;6.250;2023-08-21T00:01:00;102182.84;;;21.51;60.12
39773;BME280;25451;51.960;6.250;2023-08-21T00:03:25;102171.03;;;21.48;60.30
39773;BME280;25451;51.960;6.250;2023-08-21T00:05:50;102181.47;;;21.48;60.41
39773;BME280;25451;51.960;6.250;2023-08-21T00:08:16;102162.09;;;21.41;60.39
39773;BME280;25451;51.960;6.250;2023-08-21T00:10:41;102169.94;;;21.44;60.40
39773;BME280;25451;51.960;6.250;2023-08-21T00:13:07;102185.13;;;21.43;60.68
39773;BME280;25451;51.960;6.250;2023-08-21T00:15:33;102180.34;;;21.39;60.71
39773;BME280;25451;51.960;6.250;2023-08-21T00:17:58;102182.31;;;21.38;60.71
39773;BME280;25451;51.960;6.250;2023-08-21T00:20:23;102183.16;;;21.39;60.94
39773;BME280;25451;51.960;6.250;2023-08-21T00:22:49;102188.22;;;21.37;60.62
39773;BME280;25451;51.960;6.250;2023-08-21T00:25:14;102185.41;;;21.37;60.92
39773;BME280;25451;51.960;6.250;2023-08-21T00:27:39;102195.78;;;21.36;60.91
39773;BME280;25451;51.960;6.250;2023-08-21T00:30:05;102184.56;;;21.36;60.85
39773;BME280;25451;51.960;6.250;2023-08-21T00:32:31;102183.69;;;21.36;60.94
39773;BME280;25451;51.960;6.250;2023-08-21T00:34:56;102187.38;;;21.36;60.85
39773;BME280;25451;51.960;6.250;2023-08-21T00:37:21;102182.88;;;21.35;61.01
39773;BME280;25451;51.960;6.250;2023-08-21T00:39:47;102172.75;;;21.34;61.18
39773;BME280;25451;51.960;6.250;2023-08-21T00:42:12;102177.28;;;21.35;61.19
39773;BME280;25451;51.960;6.250;2023-08-21T00:44:37;102172.19;;;21.32;61.54
39773;BME280;25451;51.960;6.250;2023-08-21T00:47:03;102166.59;;;21.32;61.57
39773;BME280;25451;51.960;6.250;2023-08-21T00:49:28;102165.75;;;21.32;61.79
39773;BME280;25451;51.960;6.250;2023-08-21T00:51:54;102166.59;;;21.32;62.10
39773;BME280;25451;51.960;6.250;2023-08-21T00:54:20;102169.41;;;21.32;62.12
39773;BME280;25451;51.960;6.250;2023-08-21T00:56:46;102176.16;;;21.31;62.12
39773;BME280;25451;51.960;6.250;2023-08-21T00:59:12;102173.34;;;21.26;62.22
39773;BME280;25451;51.960;6.250;2023-08-21T01:01:38;102177.00;;;21.27;62.23
39773;BME280;25451;51.960;6.250;2023-08-21T01:04:03;102176.16;;;21.26;62.22
39773;BME280;25451;51.960;6.250;2023-08-21T01:06:29;102174.75;;;21.24;62.16
39773;BME280;25451;51.960;6.250;2023-08-21T01:09:00;102183.16;;;21.24;62.21
39773;BME280;25451;51.960;6.250;2023-08-21T01:14:50;102179.53;;;21.23;62.21
39773;BME280;25451;51.960;6.250;2023-08-21T01:17:06;102179.78;;;21.22;62.10
39773;BME280;25451;51.960;6.250;2023-08-21T01:19:40;102175.31;;;21.21;62.08
39773;BME280;25451;51.960;6.250;2023-08-21T01:22:06;102174.47;;;21.20;62.11
39773;BME280;25451;51.960;6.250;2023-08-21T01:24:32;102177.56;;;21.19;62.11
39773;BME280;25451;51.960;6.250;2023-08-21T01:26:58;102178.41;;;21.19;62.00
39773;BME280;25451;51.960;6.250;2023-08-21T01:29:23;102177.56;;;21.19;62.17
39773;BME280;25451;51.960;6.250;2023-08-21T01:32:06;102177.88;;;21.17;62.15
39773;BME280;25451;51.960;6.250;2023-08-21T01:34:33;102178.13;;;21.16;62.07
39773;BME280;25451;51.960;6.250;2023-08-21T01:37:00;102177.31;;;21.15;62.19
39773;BME280;25451;51.960;6.250;2023-08-21T01:39:26;102160.75;;;21.09;62.24
39773;BME280;25451;51.960;6.250;2023-08-21T01:41:52;102165.78;;;21.12;62.36
39773;BME280;25451;51.960;6.250;2023-08-21T01:44:18;102168.88;;;21.10;62.31
39773;BME280;25451;51.960;6.250;2023-08-21T01:46:43;102165.50;;;21.08;62.35
39773;BME280;25451;51.960;6.250;2023-08-21T01:49:08;102161.00;;;21.02;62.38
39773;BME280;25451;51.960;6.250;2023-08-21T01:51:33;102179.53;;;21.03;62.36
39773;BME280;25451;51.960;6.250;2023-08-21T01:53:59;102174.47;;;21.00;62.44
39773;BME280;25451;51.960;6.250;2023-08-21T01:56:24;102169.41;;;20.97;62.50
39773;BME280;25451;51.960;6.250;2023-08-21T01:58:49;102176.16;;;20.96;62.43
39773;BME280;25451;51.960;6.250;2023-08-21T02:01:15;102175.88;;;20.93;62.54
39773;BME280;25451;51.960;6.250;2023-08-21T02:03:40;102172.50;;;20.91;62.38
39773;BME280;25451;51.960;6.250;2023-08-21T02:06:06;102173.91;;;20.88;62.33
39773;BME280;25451;51.960;6.250;2023-08-21T02:08:33;102177.25;;;20.85;62.52
39773;BME280;25451;51.960;6.250;2023-08-21T02:10:58;102167.47;;;20.83;62.55
39773;BME280;25451;51.960;6.250;2023-08-21T02:13:25;102170.53;;;20.81;62.55
39773;BME280;25451;51.960;6.250;2023-08-21T02:15:50;102175.88;;;20.78;62.65
39773;BME280;25451;51.960;6.250;2023-08-21T02:18:15;102169.69;;;20.76;62.82
39773;BME280;25451;51.960;6.250;2023-08-21T02:20:42;102160.16;;;20.72;63.06
39773;BME280;25451;51.960;6.250;2023-08-21T02:23:07;102163.81;;;20.72;63.26
39773;BME280;25451;51.960;6.250;2023-08-21T02:25:32;102165.19;;;20.70;63.39
39773;BME280;25451;51.960;6.250;2023-08-21T02:27:58;102177.56;;;20.69;63.54
39773;BME280;25451;51.960;6.250;2023-08-21T02:30:23;102178.66;;;20.67;63.52
39773;BME280;25451;51.960;6.250;2023-08-21T02:32:51;102174.19;;;20.67;63.57
39773;BME280;25451;51.960;6.250;2023-08-21T02:35:17;102172.50;;;20.65;63.85
39773;BME280;25451;51.960;6.250;2023-08-21T02:37:42;102174.72;;;20.63;64.02
39773;BME280;25451;51.960;6.250;2023-08-21T02:40:08;102176.97;;;20.61;64.08
39773;BME280;25451;51.960;6.250;2023-08-21T02:42:34;102165.19;;;20.59;64.16
39773;BME280;25451;51.960;6.250;2023-08-21T02:44:59;102169.69;;;20.60;64.41
39773;BME280;25451;51.960;6.250;2023-08-21T02:47:28;102167.16;;;20.59;64.15
39773;BME280;25451;51.960;6.250;2023-08-21T02:49:54;102171.91;;;20.58;64.07
39773;BME280;25451;51.960;6.250;2023-08-21T02:52:19;102165.47;;;20.58;64.08
39773;BME280;25451;51.960;6.250;2023-08-21T02:54:44;102169.97;;;20.54;63.93
39773;BME280;25451;51.960;6.250;2023-08-21T02:57:09;102169.38;;;20.57;64.00
39773;BME280;25451;51.960;6.250;2023-08-21T02:59:35;102166.88;;;20.55;63.92
39773;BME280;25451;51.960;6.250;2023-08-21T03:02:00;102166.03;;;20.55;64.12
39773;BME280;25451;51.960;6.250;2023-08-21T03:04:25;102167.41;;;20.52;64.00
39773;BME280;25451;51.960;6.250;2023-08-21T03:06:51;102163.78;;;20.52;63.96
39773;BME280;25451;51.960;6.250;2023-08-21T03:09:16;102167.69;;;20.51;64.03
39773;BME280;25451;51.960;6.250;2023-08-21T03:11:41;102163.47;;;20.48;64.06
39773;BME280;25451;51.960;6.250;2023-08-21T03:14:07;102167.13;;;20.49;63.98
39773;BME280;25451;51.960;6.250;2023-08-21T03:16:32;102161.25;;;20.45;64.06
39773;BME280;25451;51.960;6.250;2023-08-21T03:18:59;102169.66;;;20.45;64.06
39773;BME280;25451;51.960;6.250;2023-08-21T03:21:25;102169.94;;;20.44;64.06
39773;BME280;25451;51.960;6.250;2023-08-21T03:23:54;102170.19;;;20.42;63.97
39773;BME280;25451;51.960;6.250;2023-08-21T03:26:19;102169.63;;;20.40;64.00
39773;BME280;25451;51.960;6.250;2023-08-21T03:28:45;102177.22;;;20.40;63.98
39773;BME280;25451;51.960;6.250;2023-08-21T03:31:10;102171.88;;;20.38;64.00
39773;BME280;25451;51.960;6.250;2023-08-21T03:33:35;102169.94;;;20.34;63.88
39773;BME280;25451;51.960;6.250;2023-08-21T03:36:00;102171.59;;;20.35;64.19
39773;BME280;25451;51.960;6.250;2023-08-21T03:38:26;102165.41;;;20.33;64.25
39773;BME280;25451;51.960;6.250;2023-08-21T03:40:51;102174.13;;;20.31;64.16
39773;BME280;25451;51.960;6.250;2023-08-21T03:43:16;102163.19;;;20.30;64.23
39773;BME280;25451;51.960;6.250;2023-08-21T03:45:42;102166.53;;;20.27;64.18
39773;BME280;25451;51.960;6.250;2023-08-21T03:48:07;102172.44;;;20.25;64.19
39773;BME280;25451;51.960;6.250;2023-08-21T03:50:32;102167.09;;;20.24;64.23
39773;BME280;25451;51.960;6.250;2023-08-21T03:52:57;102172.16;;;20.22;64.12
39773;BME280;25451;51.960;6.250;2023-08-21T03:55:23;102168.78;;;20.20;64.14
39773;BME280;25451;51.960;6.250;2023-08-21T03:57:48;102170.97;;;20.18;64.18
39773;BME280;25451;51.960;6.250;2023-08-21T04:00:14;102167.56;;;20.16;64.44
39773;BME280;25451;51.960;6.250;2023-08-21T04:02:40;102167.00;;;20.14;64.31
39773;BME280;25451;51.960;6.250;2023-08-21T04:05:06;102171.81;;;20.13;64.43
39773;BME280;25451;51.960;6.250;2023-08-21T04:07:31;102171.22;;;20.11;64.48
39773;BME280;25451;51.960;6.250;2023-08-21T04:09:56;102169.53;;;20.10;64.38
39773;BME280;25451;51.960;6.250;2023-08-21T04:12:22;102171.78;;;20.08;64.37
39773;BME280;25451;51.960;6.250;2023-08-21T04:14:47;102170.91;;;20.08;64.43
39773;BME280;25451;51.960;6.250;2023-08-21T04:17:12;102175.72;;;20.07;64.55
39773;BME280;25451;51.960;6.250;2023-08-21T04:19:37;102180.75;;;20.05;64.59
39773;BME280;25451;51.960;6.250;2023-08-21T04:22:06;102182.69;;;20.05;64.55
39773;BME280;25451;51.960;6.250;2023-08-21T04:24:31;102173.44;;;20.04;64.65
39773;BME280;25451;51.960;6.250;2023-08-21T04:26:56;102184.94;;;20.03;64.45
39773;BME280;25451;51.960;6.250;2023-08-21T04:29:22;102183.22;;;20.02;64.35
39773;BME280;25451;51.960;6.250;2023-08-21T04:31:47;102176.81;;;20.01;64.52
39773;BME280;25451;51.960;6.250;2023-08-21T04:34:13;102188.84;;;20.02;64.46
39773;BME280;25451;51.960;6.250;2023-08-21T04:36:38;102189.41;;;19.99;64.64
39773;BME280;25451;51.960;6.250;2023-08-21T04:39:03;102173.97;;;19.96;64.74
39773;BME280;25451;51.960;6.250;2023-08-21T04:41:29;102172.59;;;19.99;64.58
39773;BME280;25451;51.960;6.250;2023-08-21T04:43:54;102182.09;;;19.98;64.69
39773;BME280;25451;51.960;6.250;2023-08-21T04:46:19;102173.97;;;19.96;64.60
39773;BME280;25451;51.960;6.250;2023-08-21T04:48:46;102179.56;;;19.96;64.67
39773;BME280;25451;51.960;6.250;2023-08-21T04:51:11;102180.97;;;19.94;64.68
39773;BME280;25451;51.960;6.250;2023-08-21T04:53:37;102189.94;;;19.96;64.65
39773;BME280;25451;51.960;6.250;2023-08-21T04:56:02;102191.91;;;19.95;64.58
39773;BME280;25451;51.960;6.250;2023-08-21T04:58:28;102183.19;;;19.92;64.55
39773;BME280;25451;51.960;6.250;2023-08-21T05:00:54;102176.50;;;19.93;64.52
39773;BME280;25451;51.960;6.250;2023-08-21T05:03:19;102182.66;;;19.95;64.57
39773;BME280;25451;51.960;6.250;2023-08-21T05:05:52;102189.94;;;19.96;64.51
39773;BME280;25451;51.960;6.250;2023-08-21T05:08:18;102188.56;;;19.93;64.64
39773;BME280;25451;51.960;6.250;2023-08-21T05:10:44;102193.59;;;19.96;64.69
39773;BME280;25451;51.960;6.250;2023-08-21T05:13:09;102187.41;;;19.94;64.47
39773;BME280;25451;51.960;6.250;2023-08-21T05:15:34;102196.13;;;19.98;64.60
39773;BME280;25451;51.960;6.250;2023-08-21T05:18:00;102197.81;;;19.99;64.59
39773;BME280;25451;51.960;6.250;2023-08-21T05:20:25;102205.09;;;20.00;64.68
39773;BME280;25451;51.960;6.250;2023-08-21T05:22:50;102195.56;;;20.01;64.56
39773;BME280;25451;51.960;6.250;2023-08-21T05:25:15;102202.03;;;20.01;64.72
39773;BME280;25451;51.960;6.250;2023-08-21T05:27:41;102204.56;;;20.03;64.87
39773;BME280;25451;51.960;6.250;2023-08-21T05:30:07;102200.63;;;20.04;65.12
39773;BME280;25451;51.960;6.250;2023-08-21T05:32:32;102206.78;;;20.06;65.20
39773;BME280;25451;51.960;6.250;2023-08-21T05:34:57;102207.66;;;20.06;65.41
39773;BME280;25451;51.960;6.250;2023-08-21T05:37:23;102203.47;;;20.09;65.51
39773;BME280;25451;51.960;6.250;2023-08-21T05:39:48;102207.94;;;20.10;65.77
39773;BME280;25451;51.960;6.250;2023-08-21T05:42:14;102207.69;;;20.11;65.62
39773;BME280;25451;51.960;6.250;2023-08-21T05:44:39;102209.34;;;20.12;65.66
39773;BME280;25451;51.960;6.250;2023-08-21T05:47:04;102209.91;;;20.14;65.77
39773;BME280;25451;51.960;6.250;2023-08-21T05:49:30;102210.75;;;20.15;65.77
39773;BME280;25451;51.960;6.250;2023-08-21T05:51:56;102207.13;;;20.14;65.79
39773;BME280;25451;51.960;6.250;2023-08-21T05:54:24;102212.78;;;20.19;65.82
39773;BME280;25451;51.960;6.250;2023-08-21T05:56:50;102219.81;;;20.22;65.78
39773;BME280;25451;51.960;6.250;2023-08-21T05:59:26;102221.19;;;20.24;65.79
39773;BME280;25451;51.960;6.250;2023-08-21T06:01:53;102224.56;;;20.26;65.79
39773;BME280;25451;51.960;6.250;2023-08-21T06:04:18;102220.66;;;20.27;65.64
39773;BME280;25451;51.960;6.250;2023-08-21T06:06:43;102223.47;;;20.32;65.39
39773;BME280;25451;51.960;6.250;2023-08-21T06:09:08;102221.22;;;20.34;65.99
39773;BME280;25451;51.960;6.250;2023-08-21T06:11:34;102219.31;;;20.40;65.77
39773;BME280;25451;51.960;6.250;2023-08-21T06:13:59;102217.31;;;20.40;65.93
39773;BME280;25451;51.960;6.250;2023-08-21T06:16:24;102224.63;;;20.46;65.93
39773;BME280;25451;51.960;6.250;2023-08-21T06:18:50;102225.75;;;20.50;65.87
39773;BME280;25451;51.960;6.250;2023-08-21T06:21:15;102222.41;;;20.53;65.92
39773;BME280;25451;51.960;6.250;2023-08-21T06:23:40;102223.25;;;20.59;65.91
39773;BME280;25451;51.960;6.250;2023-08-21T06:26:05;102225.53;;;20.62;65.81
39773;BME280;25451;51.960;6.250;2023-08-21T06:28:31;102217.38;;;20.65;65.77
39773;BME280;25451;51.960;6.250;2023-08-21T06:30:56;102223.28;;;20.69;65.77
39773;BME280;25451;51.960;6.250;2023-08-21T06:33:23;102220.22;;;20.71;65.82
39773;BME280;25451;51.960;6.250;2023-08-21T06:35:48;102232.28;;;20.76;65.80
39773;BME280;25451;51.960;6.250;2023-08-21T06:38:13;102229.47;;;20.81;65.68
39773;BME280;25451;51.960;6.250;2023-08-21T06:40:39;102229.22;;;20.83;65.70
39773;BME280;25451;51.960;6.250;2023-08-21T06:43:04;102239.88;;;20.91;65.62
39773;BME280;25451;51.960;6.250;2023-08-21T06:45:31;102247.44;;;20.95;65.53
39773;BME280;25451;51.960;6.250;2023-08-21T06:47:57;102237.91;;;21.01;65.46
39773;BME280;25451;51.960;6.250;2023-08-21T06:50:23;102237.09;;;21.06;65.33
39773;BME280;25451;51.960;6.250;2023-08-21T06:52:48;102231.50;;;21.11;65.32
39773;BME280;25451;51.960;6.250;2023-08-21T06:55:13;102239.91;;;21.16;65.28
39773;BME280;25451;51.960;6.250;2023-08-21T06:57:39;102236.25;;;21.20;65.08
39773;BME280;25451;51.960;6.250;2023-08-21T07:00:05;102240.19;;;21.24;65.06
39773;BME280;25451;51.960;6.250;2023-08-21T07:02:31;102245.81;;;21.29;65.08
39773;BME280;25451;51.960;6.250;2023-08-21T07:04:56;102241.31;;;21.33;65.08
39773;BME280;25451;51.960;6.250;2023-08-21T07:07:22;102243.25;;;21.38;64.87
39773;BME280;25451;51.960;6.250;2023-08-21T07:09:47;102242.41;;;21.42;64.98
39773;BME280;25451;51.960;6.250;2023-08-21T07:12:12;102242.44;;;21.48;64.81
39773;BME280;25451;51.960;6.250;2023-08-21T07:14:38;102249.72;;;21.54;64.79
39773;BME280;25451;51.960;6.250;2023-08-21T07:17:03;102243.53;;;21.57;64.50
39773;BME280;25451;51.960;6.250;2023-08-21T07:19:28;102239.88;;;21.61;64.30
39773;BME280;25451;51.960;6.250;2023-08-21T07:21:54;102242.94;;;21.65;64.55
39773;BME280;25451;51.960;6.250;2023-08-21T07:24:19;102251.38;;;21.70;64.30
39773;BME280;25451;51.960;6.250;2023-08-21T07:26:44;102247.16;;;21.72;64.20
39773;BME280;25451;51.960;6.250;2023-08-21T07:29:10;102248.53;;;21.80;64.05
39773;BME280;25451;51.960;6.250;2023-08-21T07:31:35;102250.25;;;21.86;63.95
39773;BME280;25451;51.960;6.250;2023-08-21T07:34:00;102251.34;;;21.90;63.99
39773;BME280;25451;51.960;6.250;2023-08-21T07:36:26;102251.63;;;21.93;63.77
39773;BME280;25451;51.960;6.250;2023-08-21T07:38:51;102251.31;;;22.00;63.56
39773;BME280;25451;51.960;6.250;2023-08-21T07:41:16;102247.34;;;22.06;63.44
39773;BME280;25451;51.960;6.250;2023-08-21T07:43:43;102248.72;;;22.13;63.43
39773;BME280;25451;51.960;6.250;2023-08-21T07:46:11;102247.88;;;22.18;63.07
39773;BME280;25451;51.960;6.250;2023-08-21T07:48:40;102245.00;;;22.28;62.88
39773;BME280;25451;51.960;6.250;2023-08-21T07:51:06;102231.53;;;22.25;62.59
39773;BME280;25451;51.960;6.250;2023-08-21T07:53:31;102250.31;;;22.40;62.68
39773;BME280;25451;51.960;6.250;2023-08-21T07:55:58;102252.78;;;22.46;62.32
39773;BME280;25451;51.960;6.250;2023-08-21T07:58:23;102255.88;;;22.50;62.40
39773;BME280;25451;51.960;6.250;2023-08-21T08:00:48;102255.53;;;22.56;62.18
39773;BME280;25451;51.960;6.250;2023-08-21T08:03:14;102266.22;;;22.64;61.92
39773;BME280;25451;51.960;6.250;2023-08-21T08:05:40;102252.69;;;22.71;61.79
39773;BME280;25451;51.960;6.250;2023-08-21T08:08:06;102259.91;;;22.87;61.64
39773;BME280;25451;51.960;6.250;2023-08-21T08:10:31;102264.81;;;23.05;61.29
39773;BME280;25451;51.960;6.250;2023-08-21T08:12:56;102265.25;;;23.23;60.98
39773;BME280;25451;51.960;6.250;2023-08-21T08:15:22;102260.06;;;23.40;60.86
39773;BME280;25451;51.960;6.250;2023-08-21T08:17:48;102263.31;;;23.52;60.42
39773;BME280;25451;51.960;6.250;2023-08-21T08:20:17;102265.16;;;23.66;60.10
39773;BME280;25451;51.960;6.250;2023-08-21T08:22:42;102262.53;;;23.75;59.80
39773;BME280;25451;51.960;6.250;2023-08-21T08:25:08;102263.03;;;23.82;59.54
39773;BME280;25451;51.960;6.250;2023-08-21T08:27:33;102275.63;;;23.89;59.33
39773;BME280;25451;51.960;6.250;2023-08-21T08:29:59;102253.59;;;23.92;59.09
39773;BME280;25451;51.960;6.250;2023-08-21T08:32:25;102260.88;;;23.98;59.16
39773;BME280;25451;51.960;6.250;2023-08-21T08:34:52;102260.25;;;24.01;58.86
39773;BME280;25451;51.960;6.250;2023-08-21T08:37:17;102263.06;;;24.06;58.89
39773;BME280;25451;51.960;6.250;2023-08-21T08:39:43;102259.13;;;24.07;58.91
39773;BME280;25451;51.960;6.250;2023-08-21T08:42:08;102267.50;;;24.12;58.72
39773;BME280;25451;51.960;6.250;2023-08-21T08:44:35;102270.00;;;24.13;58.86
39773;BME280;25451;51.960;6.250;2023-08-21T08:47:04;102259.81;;;24.17;58.47
39773;BME280;25451;51.960;6.250;2023-08-21T08:49:30;102267.69;;;24.20;58.24
39773;BME280;25451;51.960;6.250;2023-08-21T08:51:57;102264.25;;;24.23;58.19
39773;BME280;25451;51.960;6.250;2023-08-21T08:54:23;102270.97;;;24.27;58.08
39773;BME280;25451;51.960;6.250;2023-08-21T08:56:51;102263.03;;;24.29;57.77
39773;BME280;25451;51.960;6.250;2023-08-21T08:59:16;102270.28;;;24.35;57.45
39773;BME280;25451;51.960;6.250;2023-08-21T09:01:42;102278.19;;;24.38;57.52
39773;BME280;25451;51.960;6.250;2023-08-21T09:04:08;102270.25;;;24.40;57.28
39773;BME280;25451;51.960;6.250;2023-08-21T09:06:34;102271.38;;;24.39;56.85
39773;BME280;25451;51.960;6.250;2023-08-21T09:08:59;102277.03;;;24.39;56.56
39773;BME280;25451;51.960;6.250;2023-08-21T09:11:25;102271.91;;;24.41;56.50
39773;BME280;25451;51.960;6.250;2023-08-21T09:13:51;102275.75;;;24.50;56.18
39773;BME280;25451;51.960;6.250;2023-08-21T09:16:22;102262.94;;;24.58;56.26
39773;BME280;25451;51.960;6.250;2023-08-21T09:18:56;102275.25;;;24.67;55.87
39773;BME280;25451;51.960;6.250;2023-08-21T09:21:25;102276.56;;;24.75;55.78
39773;BME280;25451;51.960;6.250;2023-08-21T09:23:59;102269.38;;;24.82;55.44
39773;BME280;25451;51.960;6.250;2023-08-21T09:26:25;102266.19;;;24.89;55.25
39773;BME280;25451;51.960;6.250;2023-08-21T09:28:52;102276.78;;;24.97;55.27
39773;BME280;25451;51.960;6.250;2023-08-21T09:31:31;102274.97;;;25.06;55.26
39773;BME280;25451;51.960;6.250;2023-08-21T09:33:58;102275.13;;;25.14;55.05
39773;BME280;25451;51.960;6.250;2023-08-21T09:36:24;102265.09;;;25.22;55.22
39773;BME280;25451;51.960;6.250;2023-08-21T09:38:51;102261.25;;;25.31;55.12
39773;BME280;25451;51.960;6.250;2023-08-21T09:41:21;102261.63;;;25.43;55.20
39773;BME280;25451;51.960;6.250;2023-08-21T09:43:47;102255.50;;;25.55;54.66
39773;BME280;25451;51.960;6.250;2023-08-21T09:46:25;102258.13;;;25.65;54.15
39773;BME280;25451;51.960;6.250;2023-08-21T09:48:54;102250.59;;;25.74;53.97
39773;BME280;25451;51.960;6.250;2023-08-21T09:51:20;102256.91;;;25.85;53.55
39773;BME280;25451;51.960;6.250;2023-08-21T09:53:47;102261.50;;;25.94;53.76
39773;BME280;25451;51.960;6.250;2023-08-21T09:56:14;102261.25;;;26.09;53.53
39773;BME280;25451;51.960;6.250;2023-08-21T09:58:39;102269.72;;;26.23;53.69
39773;BME280;25451;51.960;6.250;2023-08-21T10:01:06;102267.22;;;26.35;53.82
39773;BME280;25451;51.960;6.250;2023-08-21T10:03:40;102266.97;;;26.45;53.65
39773;BME280;25451;51.960;6.250;2023-08-21T10:06:08;102260.56;;;26.53;53.46
39773;BME280;25451;51.960;6.250;2023-08-21T10:08:37;102253.84;;;26.63;53.14
39773;BME280;25451;51.960;6.250;2023-08-21T10:11:05;102251.41;;;26.70;53.04
39773;BME280;25451;51.960;6.250;2023-08-21T10:13:32;102254.38;;;26.78;53.33
39773;BME280;25451;51.960;6.250;2023-08-21T10:15:58;102247.59;;;26.88;53.42
39773;BME280;25451;51.960;6.250;2023-08-21T10:18:30;102252.50;;;26.96;53.11
39773;BME280;25451;51.960;6.250;2023-08-21T10:20:56;102245.03;;;27.00;53.16
39773;BME280;25451;51.960;6.250;2023-08-21T10:23:29;102253.44;;;27.05;52.86
39773;BME280;25451;51.960;6.250;2023-08-21T10:26:01;102239.97;;;27.10;52.61
39773;BME280;25451;51.960;6.250;2023-08-21T10:31:26;102242.03;;;27.19;52.47
39773;BME280;25451;51.960;6.250;2023-08-21T10:33:52;102242.88;;;27.19;52.10
39773;BME280;25451;51.960;6.250;2023-08-21T10:39:27;102241.25;;;27.27;52.10
39773;BME280;25451;51.960;6.250;2023-08-21T10:49:58;102237.38;;;27.67;52.55
39773;BME280;25451;51.960;6.250;2023-08-21T10:54:54;102233.94;;;27.78;52.21
39773;BME280;25451;51.960;6.250;2023-08-21T10:57:23;102235.97;;;27.86;52.55
39773;BME280;25451;51.960;6.250;2023-08-21T10:59:52;102237.41;;;27.98;52.40
39773;BME280;25451;51.960;6.250;2023-08-21T11:02:18;102234.41;;;28.03;51.92
39773;BME280;25451;51.960;6.250;2023-08-21T11:04:44;102246.75;;;28.07;51.39
39773;BME280;25451;51.960;6.250;2023-08-21T11:07:10;102240.44;;;28.10;51.47
39773;BME280;25451;51.960;6.250;2023-08-21T11:09:38;102242.28;;;28.14;51.27
39773;BME280;25451;51.960;6.250;2023-08-21T11:12:11;102244.13;;;28.19;51.04
39773;BME280;25451;51.960;6.250;2023-08-21T11:14:38;102244.00;;;28.24;51.04
39773;BME280;25451;51.960;6.250;2023-08-21T11:17:03;102243.31;;;28.27;50.80
39773;BME280;25451;51.960;6.250;2023-08-21T11:19:33;102254.03;;;28.30;50.10
39773;BME280;25451;51.960;6.250;2023-08-21T11:22:02;102254.53;;;28.32;49.49
39773;BME280;25451;51.960;6.250;2023-08-21T11:27:11;102255.38;;;28.41;49.86
39773;BME280;25451;51.960;6.250;2023-08-21T11:29:39;102247.88;;;28.45;49.57
39773;BME280;25451;51.960;6.250;2023-08-21T11:32:23;102244.41;;;28.48;49.44
39773;BME280;25451;51.960;6.250;2023-08-21T11:34:53;102240.88;;;28.51;49.19
39773;BME280;25451;51.960;6.250;2023-08-21T11:37:23;102238.22;;;28.54;49.35
39773;BME280;25451;51.960;6.250;2023-08-21T11:39:54;102240.41;;;28.57;49.59
39773;BME280;25451;51.960;6.250;2023-08-21T11:42:21;102228.91;;;28.62;49.15
39773;BME280;25451;51.960;6.250;2023-08-21T11:44:50;102228.56;;;28.64;48.69
39773;BME280;25451;51.960;6.250;2023-08-21T11:47:17;102239.25;;;28.67;48.63
39773;BME280;25451;51.960;6.250;2023-08-21T11:49:43;102232.41;;;28.68;48.74
39773;BME280;25451;51.960;6.250;2023-08-21T11:52:10;102228.06;;;28.71;48.15
39773;BME280;25451;51.960;6.250;2023-08-21T11:54:39;102222.06;;;28.72;47.78
39773;BME280;25451;51.960;6.250;2023-08-21T11:57:12;102217.53;;;28.71;48.21
39773;BME280;25451;51.960;6.250;2023-08-21T11:59:38;102215.03;;;28.78;48.33
39773;BME280;25451;51.960;6.250;2023-08-21T12:02:23;102218.72;;;28.87;48.48
39773;BME280;25451;51.960;6.250;2023-08-21T12:04:53;102211.69;;;28.93;48.04
39773;BME280;25451;51.960;6.250;2023-08-21T12:07:19;102203.81;;;28.99;47.75
39773;BME280;25451;51.960;6.250;2023-08-21T12:09:47;102205.16;;;29.01;47.39
39773;BME280;25451;51.960;6.250;2023-08-21T12:12:14;102202.63;;;29.00;47.29
39773;BME280;25451;51.960;6.250;2023-08-21T12:14:39;102213.19;;;28.99;47.60
39773;BME280;25451;51.960;6.250;2023-08-21T12:17:05;102211.50;;;28.98;47.47
39773;BME280;25451;51.960;6.250;2023-08-21T12:19:30;102213.50;;;28.98;47.22
39773;BME280;25451;51.960;6.250;2023-08-21T12:21:56;102206.81;;;28.94;46.89
39773;BME280;25451;51.960;6.250;2023-08-21T12:24:21;102203.16;;;28.93;46.90
39773;BME280;25451;51.960;6.250;2023-08-21T12:26:46;102211.69;;;28.93;46.90
39773;BME280;25451;51.960;6.250;2023-08-21T12:29:12;102201.47;;;28.92;47.20
39773;BME280;25451;51.960;6.250;2023-08-21T12:31:37;102206.00;;;28.93;47.36
39773;BME280;25451;51.960;6.250;2023-08-21T12:34:02;102200.31;;;28.93;47.41
39773;BME280;25451;51.960;6.250;2023-08-21T12:36:28;102195.78;;;28.92;46.77
39773;BME280;25451;51.960;6.250;2023-08-21T12:38:54;102198.63;;;28.92;46.73
39773;BME280;25451;51.960;6.250;2023-08-21T12:41:19;102208.34;;;28.91;46.88
39773;BME280;25451;51.960;6.250;2023-08-21T12:43:45;102200.13;;;28.90;46.79
39773;BME280;25451;51.960;6.250;2023-08-21T12:46:10;102203.31;;;28.88;47.06
39773;BME280;25451;51.960;6.250;2023-08-21T12:48:36;102201.66;;;28.87;46.93
39773;BME280;25451;51.960;6.250;2023-08-21T12:51:02;102198.81;;;28.87;47.27
39773;BME280;25451;51.960;6.250;2023-08-21T12:53:27;102188.28;;;28.88;46.72
39773;BME280;25451;51.960;6.250;2023-08-21T12:55:53;102187.44;;;28.87;46.78
39773;BME280;25451;51.960;6.250;2023-08-21T12:58:18;102191.44;;;28.86;46.73
39773;BME280;25451;51.960;6.250;2023-08-21T13:00:44;102189.78;;;28.85;46.70
39773;BME280;25451;51.960;6.250;2023-08-21T13:03:09;102197.63;;;28.88;47.07
39773;BME280;25451;51.960;6.250;2023-08-21T13:05:36;102195.97;;;28.87;47.34
39773;BME280;25451;51.960;6.250;2023-08-21T13:08:01;102192.28;;;28.87;47.47